createdAt,value
2022-09-26T00:00:47.183Z,30.07
2022-09-26T00:03:13.749Z,28.00
2022-09-26T00:05:40.187Z,28.27
2022-09-26T00:08:06.983Z,28.77
2022-09-26T00:10:33.927Z,29.50
2022-09-26T00:13:01.173Z,28.90
2022-09-26T00:15:28.179Z,28.42
2022-09-26T00:17:54.640Z,29.27
2022-09-26T00:20:21.123Z,29.55
2022-09-26T00:22:47.563Z,31.00
2022-09-26T00:25:14.039Z,30.70
2022-09-26T00:27:40.509Z,30.15
2022-09-26T00:30:07.209Z,29.58
2022-09-26T00:32:33.699Z,31.27
2022-09-26T00:35:00.196Z,33.17
2022-09-26T00:37:26.697Z,34.88
2022-09-26T00:39:53.161Z,32.80
2022-09-26T00:42:20.144Z,32.63
2022-09-26T00:44:50.738Z,33.13
2022-09-26T00:47:22.007Z,33.10
2022-09-26T00:49:48.518Z,35.37
2022-09-26T00:52:16.707Z,34.37
2022-09-26T00:54:45.463Z,33.60
2022-09-26T00:57:17.594Z,32.13
2022-09-26T00:59:45.024Z,31.87
2022-09-26T01:02:11.580Z,31.10
2022-09-26T01:04:38.433Z,32.63
2022-09-26T01:07:06.301Z,34.30
2022-09-26T01:09:33.196Z,33.73
2022-09-26T01:12:00.299Z,32.13
2022-09-26T01:14:27.137Z,32.72
2022-09-26T01:16:53.708Z,30.90
2022-09-26T01:19:25.169Z,31.77
2022-09-26T01:21:57.848Z,33.17
2022-09-26T01:24:45.032Z,31.53
2022-09-26T01:27:23.698Z,32.20
2022-09-26T01:30:08.634Z,31.30
2022-09-26T01:32:50.494Z,31.03
2022-09-26T01:35:35.742Z,30.52
2022-09-26T01:38:15.285Z,31.33
2022-09-26T01:41:00.617Z,31.87
2022-09-26T01:43:40.339Z,30.90
2022-09-26T01:46:09.949Z,30.57
2022-09-26T01:48:39.244Z,30.63
2022-09-26T01:51:12.271Z,32.07
2022-09-26T01:54:10.290Z,28.83
2022-09-26T01:56:37.471Z,31.60
2022-09-26T01:59:05.518Z,32.07
2022-09-26T02:01:33.267Z,31.10
2022-09-26T02:04:01.551Z,32.13
2022-09-26T02:06:34.221Z,32.43
2022-09-26T02:09:01.876Z,28.95
2022-09-26T02:11:28.379Z,27.23
2022-09-26T02:14:04.752Z,27.42
2022-09-26T02:16:42.074Z,29.60
2022-09-26T02:19:11.610Z,28.03
2022-09-26T02:21:38.156Z,28.23
2022-09-26T02:24:04.671Z,30.30
2022-09-26T02:26:31.126Z,30.27
2022-09-26T02:28:57.615Z,29.55
2022-09-26T02:31:24.664Z,30.73
2022-09-26T02:33:51.561Z,30.23
2022-09-26T02:36:21.220Z,29.65
2022-09-26T02:38:47.663Z,28.25
2022-09-26T02:41:17.984Z,29.88
2022-09-26T02:43:49.376Z,27.67
2022-09-26T02:46:25.056Z,27.48
2022-09-26T02:48:51.495Z,29.17
2022-09-26T02:51:20.682Z,28.58
2022-09-26T02:53:55.251Z,28.40
2022-09-26T02:56:26.452Z,29.43
2022-09-26T02:59:09.618Z,28.63
2022-09-26T03:01:48.199Z,28.07
2022-09-26T03:04:34.975Z,28.25
2022-09-26T03:07:02.887Z,27.10
2022-09-26T03:09:29.353Z,29.17
2022-09-26T03:11:57.855Z,27.53
2022-09-26T03:14:24.409Z,26.45
2022-09-26T03:16:50.887Z,25.70
2022-09-26T03:19:20.227Z,27.52
2022-09-26T03:21:47.012Z,28.47
2022-09-26T03:24:13.855Z,29.60
2022-09-26T03:26:40.318Z,28.45
2022-09-26T03:29:06.830Z,29.90
2022-09-26T03:31:33.526Z,28.80
2022-09-26T03:34:00.299Z,30.27
2022-09-26T03:36:26.803Z,30.67
2022-09-26T03:38:53.270Z,31.45
2022-09-26T03:41:20.912Z,28.70
2022-09-26T03:43:47.423Z,26.13
2022-09-26T03:46:15.270Z,27.33
2022-09-26T03:48:41.846Z,26.83
2022-09-26T03:51:09.263Z,29.77
2022-09-26T03:53:36.273Z,29.30
2022-09-26T03:56:09.713Z,29.98
2022-09-26T03:58:36.155Z,31.05
2022-09-26T04:01:03.896Z,28.30
2022-09-26T04:03:32.433Z,28.50
2022-09-26T04:05:58.914Z,31.97
2022-09-26T04:08:25.422Z,30.80
2022-09-26T04:10:51.878Z,29.10
2022-09-26T04:13:46.695Z,29.83
2022-09-26T04:16:06.066Z,30.25
2022-09-26T04:18:32.710Z,31.60
2022-09-26T04:21:05.741Z,32.95
2022-09-26T04:23:36.437Z,32.72
2022-09-26T04:26:12.795Z,33.05
2022-09-26T04:28:39.907Z,35.80
2022-09-26T04:31:06.740Z,32.92
2022-09-26T04:33:33.883Z,33.65
2022-09-26T04:36:00.784Z,30.55
2022-09-26T04:38:32.642Z,33.87
2022-09-26T04:41:09.103Z,32.90
2022-09-26T04:43:35.746Z,34.65
2022-09-26T04:46:02.466Z,38.95
2022-09-26T04:48:29.072Z,35.70
2022-09-26T04:50:55.567Z,35.83
2022-09-26T04:53:22.002Z,35.38
2022-09-26T04:55:48.737Z,34.08
2022-09-26T04:58:15.667Z,35.45
2022-09-26T05:00:47.502Z,36.72
2022-09-26T05:03:14.437Z,34.88
2022-09-26T05:05:41.433Z,33.92
2022-09-26T05:08:08.022Z,35.97
2022-09-26T05:10:34.544Z,33.13
2022-09-26T05:13:00.982Z,33.08
2022-09-26T05:15:27.471Z,35.22
2022-09-26T05:17:57.698Z,33.95
2022-09-26T05:20:24.769Z,34.30
2022-09-26T05:22:51.333Z,32.22
2022-09-26T05:25:36.346Z,33.35
2022-09-26T05:28:03.244Z,33.05
2022-09-26T05:30:31.423Z,32.38
2022-09-26T05:32:58.421Z,32.33
2022-09-26T05:35:24.864Z,32.20
2022-09-26T05:37:58.276Z,31.98
2022-09-26T05:40:43.402Z,32.00
2022-09-26T05:43:11.137Z,32.50
2022-09-26T05:45:38.144Z,31.80
2022-09-26T05:48:05.185Z,32.35
2022-09-26T05:50:31.959Z,30.45
2022-09-26T05:52:58.870Z,31.30
2022-09-26T05:55:25.812Z,33.60
2022-09-26T05:57:52.922Z,30.80
2022-09-26T06:00:19.397Z,30.20
2022-09-26T06:02:46.092Z,32.38
2022-09-26T06:05:12.784Z,30.23
2022-09-26T06:07:39.263Z,29.83
2022-09-26T06:10:06.626Z,31.63
2022-09-26T06:12:34.537Z,30.40
2022-09-26T06:15:01.007Z,32.22
2022-09-26T06:17:27.649Z,32.03
2022-09-26T06:19:54.757Z,31.73
2022-09-26T06:22:21.215Z,31.10
2022-09-26T06:24:47.913Z,31.13
2022-09-26T06:27:14.471Z,32.13
2022-09-26T06:29:40.949Z,30.00
2022-09-26T06:32:07.451Z,30.98
2022-09-26T06:34:33.960Z,32.97
2022-09-26T06:37:00.393Z,31.73
2022-09-26T06:39:35.875Z,30.02
2022-09-26T06:42:08.423Z,30.63
2022-09-26T06:44:35.062Z,31.17
2022-09-26T06:47:01.586Z,28.35
2022-09-26T06:49:28.536Z,26.13
2022-09-26T06:51:55.185Z,29.25
2022-09-26T06:54:21.622Z,28.50
2022-09-26T06:56:48.099Z,27.65
2022-09-26T06:59:17.102Z,27.50
2022-09-26T07:01:46.416Z,27.45
2022-09-26T07:04:13.680Z,27.73
2022-09-26T07:06:40.233Z,27.02
2022-09-26T07:09:11.854Z,27.13
2022-09-26T07:11:56.668Z,28.70
2022-09-26T07:14:25.764Z,30.00
2022-09-26T07:16:52.706Z,31.95
2022-09-26T07:19:19.218Z,30.60
2022-09-26T07:21:46.397Z,30.13
2022-09-26T07:24:14.392Z,29.48
2022-09-26T07:26:42.131Z,28.40
2022-09-26T07:29:09.061Z,26.67
2022-09-26T07:31:36.067Z,29.25
2022-09-26T07:34:04.159Z,27.10
2022-09-26T07:36:30.957Z,27.92
2022-09-26T07:38:57.492Z,29.00
2022-09-26T07:41:24.136Z,28.85
2022-09-26T07:44:41.170Z,28.90
2022-09-26T07:46:55.837Z,26.25
2022-09-26T07:49:41.181Z,27.25
2022-09-26T07:52:07.830Z,27.27
2022-09-26T07:54:35.312Z,26.98
2022-09-26T07:57:01.748Z,26.75
2022-09-26T07:59:28.285Z,27.10
2022-09-26T08:01:54.932Z,26.80
2022-09-26T08:04:21.522Z,25.50
2022-09-26T08:06:47.952Z,27.63
2022-09-26T08:09:15.196Z,27.10
2022-09-26T08:11:42.081Z,27.15
2022-09-26T08:14:08.819Z,27.38
2022-09-26T08:16:39.647Z,28.05
2022-09-26T08:19:07.982Z,31.25
2022-09-26T08:21:34.782Z,30.65
2022-09-26T08:24:02.253Z,27.95
2022-09-26T08:26:28.733Z,29.58
2022-09-26T08:28:55.228Z,27.98
2022-09-26T08:31:22.822Z,29.88
2022-09-26T08:33:49.399Z,27.42
2022-09-26T08:36:16.487Z,28.27
2022-09-26T08:38:42.962Z,27.25
2022-09-26T08:41:32.836Z,25.27
2022-09-26T08:44:05.570Z,27.88
2022-09-26T08:46:50.952Z,25.20
2022-09-26T08:49:24.204Z,27.05
2022-09-26T08:51:51.236Z,25.15
2022-09-26T08:54:20.744Z,26.60
2022-09-26T08:56:48.270Z,26.85
2022-09-26T08:59:27.037Z,26.02
2022-09-26T09:01:54.574Z,26.40
2022-09-26T09:04:22.742Z,26.80
2022-09-26T09:06:50.949Z,27.15
2022-09-26T09:09:17.492Z,29.73
2022-09-26T09:11:51.336Z,24.65
2022-09-26T09:14:17.949Z,25.83
2022-09-26T09:17:00.830Z,26.40
2022-09-26T09:19:27.417Z,25.20
2022-09-26T09:21:59.787Z,25.73
2022-09-26T09:24:30.379Z,26.55
2022-09-26T09:30:21.315Z,25.98
2022-09-26T09:32:52.866Z,28.15
2022-09-26T09:35:20.950Z,27.70
2022-09-26T09:37:48.552Z,27.98
2022-09-26T09:40:20.910Z,25.58
2022-09-26T09:42:54.934Z,27.08
2022-09-26T09:45:41.810Z,27.27
2022-09-26T09:48:17.375Z,25.30
2022-09-26T09:50:50.134Z,24.77
2022-09-26T09:53:25.678Z,23.15
2022-09-26T09:55:52.275Z,23.35
2022-09-26T09:58:21.922Z,22.02
2022-09-26T10:00:51.702Z,21.80
2022-09-26T10:03:20.999Z,20.85
2022-09-26T10:05:48.250Z,23.20
2022-09-26T10:08:16.978Z,21.40
2022-09-26T10:10:48.211Z,19.13
2022-09-26T10:13:15.368Z,17.90
2022-09-26T10:15:56.336Z,14.93
2022-09-26T10:18:25.344Z,15.98
2022-09-26T10:20:54.445Z,14.18
2022-09-26T10:23:31.735Z,14.38
2022-09-26T10:26:03.630Z,13.65
2022-09-26T10:28:31.304Z,14.57
2022-09-26T10:31:05.219Z,14.65
2022-09-26T10:33:33.853Z,13.60
2022-09-26T10:36:05.235Z,14.88
2022-09-26T10:38:31.797Z,13.43
2022-09-26T10:40:59.480Z,13.43
2022-09-26T10:43:32.430Z,13.07
2022-09-26T10:46:07.989Z,12.73
2022-09-26T10:48:48.458Z,12.27
2022-09-26T10:51:23.400Z,12.00
2022-09-26T10:53:52.271Z,11.30
2022-09-26T10:56:23.230Z,10.57
2022-09-26T10:58:52.281Z,11.82
2022-09-26T11:01:22.552Z,11.32
2022-09-26T11:03:49.194Z,11.55
2022-09-26T11:06:24.101Z,9.60
2022-09-26T11:08:51.697Z,11.02
2022-09-26T11:11:21.245Z,9.07
2022-09-26T11:13:59.059Z,11.77
2022-09-26T11:16:26.275Z,9.43
2022-09-26T11:19:11.191Z,9.57
2022-09-26T11:21:56.097Z,8.20
2022-09-26T11:24:22.884Z,7.07
2022-09-26T11:27:08.386Z,7.40
2022-09-26T11:29:40.180Z,8.77
2022-09-26T11:32:06.659Z,7.88
2022-09-26T11:34:33.102Z,7.57
2022-09-26T11:37:01.747Z,6.75
2022-09-26T11:39:34.740Z,5.32
2022-09-26T11:42:08.126Z,5.53
2022-09-26T11:44:40.907Z,5.57
2022-09-26T11:47:31.461Z,5.93
2022-09-26T11:50:16.368Z,6.70
2022-09-26T11:52:49.361Z,5.82
2022-09-26T11:55:36.282Z,4.90
2022-09-26T11:58:17.973Z,4.28
2022-09-26T12:00:50.443Z,5.80
2022-09-26T12:03:50.231Z,5.28
2022-09-26T12:06:25.947Z,6.32
2022-09-26T12:09:11.328Z,6.50
2022-09-26T12:11:45.597Z,5.13
2022-09-26T12:14:37.028Z,4.00
2022-09-26T12:17:07.555Z,4.75
2022-09-26T12:19:37.192Z,4.82
2022-09-26T12:22:25.721Z,3.50
2022-09-26T12:25:11.385Z,3.50
2022-09-26T12:27:58.655Z,4.03
2022-09-26T12:30:26.497Z,3.75
2022-09-26T12:33:02.321Z,4.32
2022-09-26T12:35:47.286Z,4.40
2022-09-26T12:38:20.751Z,3.80
2022-09-26T12:40:57.547Z,4.80
2022-09-26T12:43:24.023Z,3.50
2022-09-26T12:46:09.994Z,3.10
2022-09-26T12:48:39.678Z,2.67
2022-09-26T12:51:16.434Z,2.30
2022-09-26T12:53:42.859Z,2.33
2022-09-26T12:56:22.504Z,2.00
2022-09-26T12:58:55.377Z,2.00
2022-09-26T13:01:28.261Z,1.90
2022-09-26T13:04:00.907Z,1.52
2022-09-26T13:07:02.448Z,1.77
2022-09-26T13:09:55.600Z,1.70
2022-09-26T13:12:33.659Z,2.03
2022-09-26T13:15:02.601Z,2.20
2022-09-26T13:17:33.891Z,2.58
2022-09-26T13:20:20.099Z,2.60
2022-09-26T13:22:51.017Z,3.92
2022-09-26T13:25:29.979Z,3.78
2022-09-26T13:27:56.450Z,3.97
2022-09-26T13:30:28.120Z,3.90
2022-09-26T13:32:57.620Z,3.95
2022-09-26T13:35:24.875Z,4.07
2022-09-26T13:38:14.317Z,4.25
2022-09-26T13:40:43.308Z,4.30
2022-09-26T13:43:13.556Z,4.63
2022-09-26T13:45:46.446Z,4.53
2022-09-26T13:48:14.235Z,4.05
2022-09-26T13:50:41.339Z,4.10
2022-09-26T13:53:08.035Z,4.40
2022-09-26T13:55:35.947Z,4.38
2022-09-26T13:58:04.122Z,4.20
2022-09-26T14:00:30.723Z,4.57
2022-09-26T14:03:16.800Z,4.55
2022-09-26T14:05:43.793Z,4.90
2022-09-26T14:08:44.643Z,5.00
2022-09-26T14:11:32.835Z,5.25
2022-09-26T14:14:17.100Z,5.15
2022-09-26T14:16:49.698Z,5.00
2022-09-26T14:19:16.597Z,5.50
2022-09-26T14:22:02.674Z,6.05
2022-09-26T14:24:38.334Z,6.10
2022-09-26T14:27:11.228Z,6.93
2022-09-26T14:29:42.567Z,6.75
2022-09-26T14:32:10.553Z,7.43
2022-09-26T14:34:57.548Z,7.07
2022-09-26T14:37:26.941Z,7.00
2022-09-26T14:40:00.860Z,6.60
2022-09-26T14:42:33.028Z,7.68
2022-09-26T14:45:00.667Z,8.25
2022-09-26T14:47:27.570Z,8.63
2022-09-26T14:49:55.371Z,8.93
2022-09-26T14:52:21.909Z,7.78
2022-09-26T14:54:48.457Z,7.47
2022-09-26T14:57:25.329Z,7.03
2022-09-26T14:59:51.928Z,7.60
2022-09-26T15:02:26.960Z,6.80
2022-09-26T15:05:04.292Z,7.82
2022-09-26T15:07:35.212Z,7.22
2022-09-26T15:10:20.644Z,7.97
2022-09-26T15:12:50.181Z,4.75
2022-09-26T15:15:26.285Z,3.63
2022-09-26T15:17:55.895Z,2.80
2022-09-26T15:20:22.668Z,2.97
2022-09-26T15:22:50.150Z,2.78
2022-09-26T15:25:16.627Z,3.38
2022-09-26T15:27:46.064Z,3.25
2022-09-26T15:30:16.717Z,2.78
2022-09-26T15:32:43.293Z,2.60
2022-09-26T15:35:11.256Z,3.10
2022-09-26T15:37:37.787Z,3.95
2022-09-26T15:40:20.527Z,4.03
2022-09-26T15:43:00.871Z,4.63
2022-09-26T15:45:27.699Z,4.45
2022-09-26T15:47:55.094Z,5.10
2022-09-26T15:50:23.458Z,5.07
2022-09-26T15:52:52.843Z,5.57
2022-09-26T15:55:21.105Z,6.45
2022-09-26T15:57:48.335Z,5.93
2022-09-26T16:00:15.041Z,5.97
2022-09-26T16:02:41.658Z,6.85
2022-09-26T16:05:12.559Z,6.43
2022-09-26T16:07:41.374Z,6.57
2022-09-26T16:10:21.238Z,6.90
2022-09-26T16:12:48.765Z,7.65
2022-09-26T16:15:19.254Z,7.95
2022-09-26T16:17:52.611Z,8.52
2022-09-26T16:20:19.080Z,8.55
2022-09-26T16:22:52.296Z,9.75
2022-09-26T16:25:18.984Z,9.30
2022-09-26T16:28:11.153Z,12.25
2022-09-26T16:31:00.715Z,15.00
2022-09-26T16:33:31.258Z,12.88
2022-09-26T16:36:24.212Z,14.70
2022-09-26T16:38:57.859Z,22.67
2022-09-26T16:41:56.327Z,15.70
2022-09-26T16:44:23.853Z,11.38
2022-09-26T16:46:54.521Z,11.38
2022-09-26T16:49:27.115Z,12.38
2022-09-26T16:52:29.227Z,11.55
2022-09-26T16:54:56.342Z,12.52
2022-09-26T16:57:23.910Z,12.75
2022-09-26T16:59:50.492Z,15.32
2022-09-26T17:02:17.182Z,15.25
2022-09-26T17:04:43.814Z,12.75
2022-09-26T17:07:11.614Z,13.25
2022-09-26T17:09:41.328Z,12.73
2022-09-26T17:12:11.680Z,12.30
2022-09-26T17:14:40.786Z,12.15
2022-09-26T17:17:08.195Z,11.32
2022-09-26T17:19:41.295Z,10.82
2022-09-26T17:22:14.484Z,12.07
2022-09-26T17:24:42.571Z,12.95
2022-09-26T17:27:13.621Z,12.27
2022-09-26T17:29:49.837Z,12.05
2022-09-26T17:32:28.173Z,14.07
2022-09-26T17:35:00.006Z,12.90
2022-09-26T17:37:26.876Z,12.23
2022-09-26T17:39:54.020Z,14.68
2022-09-26T17:42:20.970Z,15.18
2022-09-26T17:44:48.315Z,13.00
2022-09-26T17:47:15.397Z,13.90
2022-09-26T17:49:42.105Z,14.52
2022-09-26T17:52:34.963Z,13.32
2022-09-26T17:55:02.421Z,13.95
2022-09-26T17:57:30.229Z,15.25
2022-09-26T17:59:57.122Z,16.30
2022-09-26T18:02:26.709Z,16.45
2022-09-26T18:04:53.371Z,16.63
2022-09-26T18:07:22.067Z,16.55
2022-09-26T18:09:49.413Z,16.58
2022-09-26T18:12:16.617Z,13.75
2022-09-26T18:14:43.098Z,13.85
2022-09-26T18:17:12.090Z,15.20
2022-09-26T18:19:39.150Z,15.10
2022-09-26T18:22:06.134Z,15.07
2022-09-26T18:24:32.722Z,20.55
2022-09-26T18:27:03.969Z,25.00
2022-09-26T18:29:33.290Z,18.77
2022-09-26T18:31:59.893Z,17.15
2022-09-26T18:34:26.467Z,21.17
2022-09-26T18:36:56.975Z,25.38
2022-09-26T18:39:24.929Z,24.92
2022-09-26T18:41:53.154Z,23.75
2022-09-26T18:44:20.392Z,22.15
2022-09-26T18:46:48.218Z,21.00
2022-09-26T18:49:14.857Z,20.88
2022-09-26T18:51:41.422Z,23.92
2022-09-26T18:54:14.731Z,24.75
2022-09-26T18:57:00.094Z,26.67
2022-09-26T18:59:29.082Z,30.42
2022-09-26T19:01:56.404Z,33.25
2022-09-26T19:04:22.996Z,28.45
2022-09-26T19:06:52.564Z,28.38
2022-09-26T19:09:19.761Z,24.58
2022-09-26T19:11:46.534Z,23.60
2022-09-26T19:14:13.266Z,24.98
2022-09-26T19:16:40.028Z,23.95
2022-09-26T19:19:06.620Z,24.00
2022-09-26T19:21:36.888Z,24.02
2022-09-26T19:24:26.618Z,28.63
2022-09-26T19:26:53.776Z,28.77
2022-09-26T19:29:37.149Z,26.63
2022-09-26T19:32:03.787Z,28.88
2022-09-26T19:34:32.689Z,29.42
2022-09-26T19:37:01.518Z,26.95
2022-09-26T19:39:28.110Z,27.60
2022-09-26T19:41:54.641Z,23.15
2022-09-26T19:44:21.151Z,25.42
2022-09-26T19:46:47.825Z,25.00
2022-09-26T19:49:15.572Z,24.38
2022-09-26T19:51:42.260Z,25.27
2022-09-26T19:54:16.693Z,25.42
2022-09-26T19:56:43.576Z,24.25
2022-09-26T19:59:10.872Z,23.80
2022-09-26T20:01:37.845Z,24.15
2022-09-26T20:04:04.388Z,23.98
2022-09-26T20:06:31.090Z,22.38
2022-09-26T20:09:01.737Z,22.60
2022-09-26T20:11:28.540Z,22.30
2022-09-26T20:14:13.798Z,21.40
2022-09-26T20:16:41.181Z,20.95
2022-09-26T20:19:08.335Z,19.75
2022-09-26T20:21:34.791Z,22.35
2022-09-26T20:24:01.374Z,22.17
2022-09-26T20:26:29.595Z,21.45
2022-09-26T20:28:56.411Z,20.38
2022-09-26T20:31:23.780Z,21.13
2022-09-26T20:33:51.305Z,19.23
2022-09-26T20:36:20.860Z,21.27
2022-09-26T20:38:48.155Z,18.80
2022-09-26T20:41:33.412Z,22.60
2022-09-26T20:44:03.816Z,21.38
2022-09-26T20:46:40.203Z,19.95
2022-09-26T20:49:07.931Z,20.00
2022-09-26T20:51:35.207Z,17.63
2022-09-26T20:54:02.176Z,18.23
2022-09-26T20:56:28.831Z,19.38
2022-09-26T20:58:55.355Z,17.67
2022-09-26T21:01:21.972Z,19.27
2022-09-26T21:03:52.247Z,19.95
2022-09-26T21:06:19.625Z,18.33
2022-09-26T21:08:46.111Z,19.77
2022-09-26T21:11:13.727Z,20.73
2022-09-26T21:13:40.304Z,18.98
2022-09-26T21:16:06.912Z,20.80
2022-09-26T21:18:33.392Z,21.20
2022-09-26T21:21:04.052Z,22.10
2022-09-26T21:23:30.598Z,23.60
2022-09-26T21:25:57.085Z,23.00
2022-09-26T21:28:26.598Z,22.15
2022-09-26T21:30:57.473Z,24.10
2022-09-26T21:33:24.026Z,27.98
2022-09-26T21:35:50.571Z,26.25
2022-09-26T21:38:17.508Z,25.40
2022-09-26T21:40:44.265Z,25.15
2022-09-26T21:43:12.506Z,25.88
2022-09-26T21:45:39.382Z,23.65
2022-09-26T21:48:05.833Z,23.13
2022-09-26T21:50:32.292Z,22.73
2022-09-26T21:53:00.054Z,22.70
2022-09-26T21:55:29.918Z,21.13
2022-09-26T21:57:58.779Z,22.08
2022-09-26T22:00:25.275Z,22.27
2022-09-26T22:02:51.818Z,20.87
2022-09-26T22:05:18.514Z,21.77
2022-09-26T22:07:44.965Z,22.67
2022-09-26T22:10:11.441Z,21.37
2022-09-26T22:12:37.925Z,21.63
2022-09-26T22:15:04.462Z,21.05
2022-09-26T22:17:31.026Z,21.17
2022-09-26T22:19:57.478Z,22.13
2022-09-26T22:22:24.726Z,20.73
2022-09-26T22:24:51.250Z,20.00
2022-09-26T22:27:17.950Z,20.95
2022-09-26T22:29:44.641Z,21.08
2022-09-26T22:32:11.169Z,20.38
2022-09-26T22:34:37.616Z,21.27
2022-09-26T22:37:04.117Z,21.07
2022-09-26T22:39:30.570Z,19.40
2022-09-26T22:41:57.106Z,20.37
2022-09-26T22:44:23.672Z,20.40
2022-09-26T22:46:50.299Z,22.40
2022-09-26T22:49:16.785Z,19.93
2022-09-26T22:51:43.428Z,20.50
2022-09-26T22:54:09.986Z,21.63
2022-09-26T22:56:36.454Z,22.67
2022-09-26T22:59:03.509Z,22.10
2022-09-26T23:01:30.162Z,22.73
2022-09-26T23:03:57.063Z,20.97
2022-09-26T23:06:23.605Z,21.83
2022-09-26T23:08:50.206Z,22.37
2022-09-26T23:11:18.445Z,21.90
2022-09-26T23:13:45.167Z,21.05
2022-09-26T23:16:12.454Z,20.75
2022-09-26T23:18:39.452Z,21.30
2022-09-26T23:21:12.931Z,22.02
2022-09-26T23:23:39.457Z,22.67
2022-09-26T23:26:06.309Z,22.70
2022-09-26T23:28:33.672Z,20.48
2022-09-26T23:31:07.082Z,21.45
2022-09-26T23:33:33.703Z,20.83
2022-09-26T23:36:00.272Z,22.85
2022-09-26T23:38:26.972Z,23.83
2022-09-26T23:40:53.774Z,24.02
2022-09-26T23:43:20.321Z,21.92
2022-09-26T23:45:46.802Z,23.55
2022-09-26T23:48:13.317Z,21.37
2022-09-26T23:50:39.807Z,22.10
2022-09-26T23:53:06.931Z,19.80
2022-09-26T23:55:33.626Z,21.58
2022-09-26T23:58:00.117Z,20.55
